createdAt,value
2019-06-26T00:01:30.913Z,24.70
2019-06-26T00:03:58.946Z,24.60
2019-06-26T00:06:28.990Z,24.60
2019-06-26T00:08:55.606Z,24.50
2019-06-26T00:11:24.996Z,24.40
2019-06-26T00:13:52.956Z,24.40
2019-06-26T00:16:21.041Z,24.40
2019-06-26T00:18:47.589Z,24.30
2019-06-26T00:21:15.966Z,24.30
2019-06-26T00:23:44.035Z,24.20
2019-06-26T00:26:10.695Z,24.10
2019-06-26T00:28:38.944Z,24.10
2019-06-26T00:31:05.652Z,24.10
2019-06-26T00:33:33.882Z,24.00
2019-06-26T00:36:02.234Z,24.00
2019-06-26T00:38:31.042Z,24.00
2019-06-26T00:40:57.577Z,23.90
2019-06-26T00:43:38.517Z,23.90
2019-06-26T00:45:57.110Z,23.90
2019-06-26T00:48:23.815Z,24.00
2019-06-26T00:50:51.978Z,24.00
2019-06-26T00:53:18.532Z,23.90
2019-06-26T00:55:46.998Z,23.80
2019-06-26T00:58:15.077Z,23.80
2019-06-26T01:00:46.941Z,23.70
2019-06-26T01:03:13.620Z,23.70
2019-06-26T01:05:45.052Z,23.80
2019-06-26T01:08:14.932Z,23.90
2019-06-26T01:10:44.046Z,24.00
2019-06-26T01:13:12.006Z,24.00
2019-06-26T01:15:38.988Z,24.00
2019-06-26T01:18:06.922Z,23.90
2019-06-26T01:20:33.590Z,23.80
2019-06-26T01:23:00.217Z,23.80
2019-06-26T01:25:26.739Z,23.70
2019-06-26T01:27:54.995Z,23.70
2019-06-26T01:30:22.531Z,23.70
2019-06-26T01:32:51.065Z,23.70
2019-06-26T01:35:17.790Z,23.70
2019-06-26T01:37:48.009Z,23.70
2019-06-26T01:40:17.001Z,23.60
2019-06-26T01:42:43.681Z,23.60
2019-06-26T01:45:12.991Z,23.50
2019-06-26T01:47:39.635Z,23.50
2019-06-26T01:50:10.073Z,23.50
2019-06-26T01:52:36.890Z,23.50
2019-06-26T01:55:06.962Z,23.50
2019-06-26T01:57:33.650Z,23.60
2019-06-26T02:00:00.153Z,23.60
2019-06-26T02:02:27.996Z,23.50
2019-06-26T02:04:54.707Z,23.50
2019-06-26T02:07:23.031Z,23.40
2019-06-26T02:09:53.025Z,23.40
2019-06-26T02:12:19.708Z,23.30
2019-06-26T02:14:48.065Z,23.30
2019-06-26T02:17:15.752Z,23.30
2019-06-26T02:19:44.037Z,23.30
2019-06-26T02:22:10.783Z,23.20
2019-06-26T02:24:37.410Z,23.30
2019-06-26T02:27:03.939Z,23.10
2019-06-26T02:29:32.085Z,23.00
2019-06-26T02:31:59.999Z,23.00
2019-06-26T02:34:28.025Z,22.80
2019-06-26T02:36:56.086Z,22.80
2019-06-26T02:39:26.004Z,22.90
2019-06-26T02:41:52.691Z,22.90
2019-06-26T02:44:21.005Z,22.90
2019-06-26T02:46:47.609Z,22.90
2019-06-26T02:49:17.055Z,22.90
2019-06-26T02:51:45.001Z,22.80
2019-06-26T02:54:11.713Z,22.80
2019-06-26T02:56:40.029Z,22.80
2019-06-26T02:59:06.702Z,22.80
2019-06-26T03:01:34.956Z,22.80
2019-06-26T03:04:01.462Z,22.80
2019-06-26T03:06:30.079Z,22.80
2019-06-26T03:08:58.196Z,22.80
2019-06-26T03:11:26.929Z,22.90
2019-06-26T03:13:53.638Z,23.00
2019-06-26T03:16:23.076Z,23.10
2019-06-26T03:18:49.756Z,23.10
2019-06-26T03:21:19.128Z,23.20
2019-06-26T03:23:46.960Z,23.20
2019-06-26T03:26:13.753Z,23.20
2019-06-26T03:28:42.132Z,23.10
2019-06-26T03:31:10.099Z,23.00
2019-06-26T03:33:38.026Z,22.90
2019-06-26T03:36:06.039Z,22.90
2019-06-26T03:38:34.037Z,22.80
2019-06-26T03:41:02.164Z,22.90
2019-06-26T03:43:35.334Z,22.90
2019-06-26T03:46:01.677Z,23.00
2019-06-26T03:48:30.044Z,23.10
2019-06-26T03:50:58.057Z,23.20
2019-06-26T03:53:26.101Z,23.40
2019-06-26T03:55:52.713Z,23.60
2019-06-26T03:58:19.301Z,23.60
2019-06-26T04:00:48.091Z,23.80
2019-06-26T04:03:15.295Z,23.80
2019-06-26T04:05:44.046Z,23.80
2019-06-26T04:08:10.692Z,23.90
2019-06-26T04:10:43.373Z,23.90
2019-06-26T04:13:11.061Z,23.90
2019-06-26T04:15:42.370Z,23.90
2019-06-26T04:18:10.083Z,24.00
2019-06-26T04:20:38.036Z,24.00
2019-06-26T04:23:04.623Z,24.10
2019-06-26T04:25:33.051Z,24.10
2019-06-26T04:28:01.128Z,24.10
2019-06-26T04:30:28.127Z,24.10
2019-06-26T04:32:57.026Z,24.10
2019-06-26T04:35:23.607Z,24.20
2019-06-26T04:37:52.092Z,24.30
2019-06-26T04:40:20.482Z,24.40
2019-06-26T04:42:51.107Z,24.50
2019-06-26T04:45:17.681Z,24.50
2019-06-26T04:47:45.770Z,24.60
2019-06-26T04:50:14.672Z,24.60
2019-06-26T04:52:43.016Z,24.60
2019-06-26T04:55:11.156Z,24.70
2019-06-26T04:57:37.842Z,24.80
2019-06-26T05:00:06.050Z,24.90
2019-06-26T05:02:36.069Z,25.10
2019-06-26T05:05:05.148Z,25.30
2019-06-26T05:07:33.152Z,25.40
2019-06-26T05:10:00.015Z,25.40
2019-06-26T05:12:30.082Z,25.60
2019-06-26T05:14:56.675Z,25.90
2019-06-26T05:17:23.852Z,26.10
2019-06-26T05:19:52.166Z,26.40
2019-06-26T05:22:18.791Z,26.90
2019-06-26T05:24:46.668Z,27.10
2019-06-26T05:27:15.266Z,27.10
2019-06-26T05:29:43.177Z,27.00
2019-06-26T05:32:11.083Z,27.10
2019-06-26T05:34:37.787Z,27.30
2019-06-26T05:37:04.590Z,27.50
2019-06-26T05:39:33.031Z,27.60
2019-06-26T05:42:01.265Z,27.60
2019-06-26T05:44:30.144Z,27.70
2019-06-26T05:46:57.695Z,27.90
2019-06-26T05:49:26.131Z,28.20
2019-06-26T05:51:54.046Z,28.30
2019-06-26T05:54:22.122Z,28.50
2019-06-26T05:56:50.071Z,28.70
2019-06-26T05:59:16.589Z,28.80
2019-06-26T06:01:45.067Z,29.10
2019-06-26T06:04:11.647Z,29.40
2019-06-26T06:06:41.997Z,29.60
2019-06-26T06:09:07.047Z,29.80
2019-06-26T06:11:35.132Z,30.10
2019-06-26T06:14:03.210Z,30.30
2019-06-26T06:16:46.340Z,30.40
2019-06-26T06:19:01.124Z,30.90
2019-06-26T06:21:27.626Z,30.80
2019-06-26T06:23:56.192Z,31.00
2019-06-26T06:26:22.822Z,31.00
2019-06-26T06:28:51.100Z,31.00
2019-06-26T06:31:17.684Z,31.00
2019-06-26T06:33:46.222Z,31.10
2019-06-26T06:36:12.783Z,31.40
2019-06-26T06:38:41.107Z,31.50
2019-06-26T06:41:09.240Z,31.70
2019-06-26T06:43:37.051Z,32.10
2019-06-26T06:46:07.217Z,32.20
2019-06-26T06:48:36.128Z,32.40
2019-06-26T06:51:05.120Z,32.70
2019-06-26T06:53:31.866Z,32.30
2019-06-26T06:56:00.115Z,32.00
2019-06-26T06:58:30.069Z,32.30
2019-06-26T07:00:58.169Z,32.60
2019-06-26T07:03:24.829Z,32.30
2019-06-26T07:05:53.102Z,32.50
2019-06-26T07:08:19.673Z,32.70
2019-06-26T07:10:48.085Z,32.70
2019-06-26T07:13:16.630Z,32.80
2019-06-26T07:15:45.169Z,32.90
2019-06-26T07:18:13.130Z,33.20
2019-06-26T07:20:44.490Z,33.10
2019-06-26T07:23:11.132Z,33.00
2019-06-26T07:25:39.121Z,33.40
2019-06-26T07:28:07.123Z,33.10
2019-06-26T07:30:33.613Z,33.60
2019-06-26T07:33:02.193Z,33.40
2019-06-26T07:35:30.027Z,34.10
2019-06-26T07:38:00.197Z,33.80
2019-06-26T07:40:26.966Z,34.00
2019-06-26T07:42:57.315Z,34.10
2019-06-26T07:45:26.228Z,34.50
2019-06-26T07:47:54.761Z,34.40
2019-06-26T07:50:23.173Z,34.30
2019-06-26T07:52:49.878Z,34.80
2019-06-26T07:55:18.302Z,34.40
2019-06-26T07:57:46.354Z,34.70
2019-06-26T08:00:16.180Z,34.90
2019-06-26T08:02:44.184Z,35.40
2019-06-26T08:05:11.290Z,35.50
2019-06-26T08:07:41.123Z,35.30
2019-06-26T08:10:08.366Z,35.60
2019-06-26T08:12:37.231Z,35.10
2019-06-26T08:15:05.915Z,34.70
2019-06-26T08:17:36.157Z,35.50
2019-06-26T08:20:03.538Z,35.90
2019-06-26T08:22:32.242Z,36.40
2019-06-26T08:24:58.831Z,36.00
2019-06-26T08:27:27.253Z,35.90
2019-06-26T08:29:54.159Z,36.70
2019-06-26T08:32:25.996Z,36.70
2019-06-26T08:34:52.635Z,36.70
2019-06-26T08:37:22.294Z,37.00
2019-06-26T08:39:48.954Z,35.90
2019-06-26T08:42:17.235Z,35.70
2019-06-26T08:44:45.248Z,36.30
2019-06-26T08:47:15.193Z,36.80
2019-06-26T08:49:41.639Z,37.30
2019-06-26T08:52:10.267Z,38.40
2019-06-26T08:54:36.991Z,37.70
2019-06-26T08:57:05.238Z,37.40
2019-06-26T08:59:33.300Z,37.30
2019-06-26T09:02:01.177Z,37.20
2019-06-26T09:04:29.240Z,37.30
2019-06-26T09:07:00.256Z,38.00
2019-06-26T09:09:26.858Z,37.50
2019-06-26T09:11:55.215Z,37.90
2019-06-26T09:14:21.750Z,38.30
2019-06-26T09:16:52.261Z,39.00
2019-06-26T09:19:19.072Z,39.90
2019-06-26T09:21:47.276Z,39.90
2019-06-26T09:24:13.816Z,39.00
2019-06-26T09:26:42.298Z,39.20
2019-06-26T09:29:10.267Z,39.00
2019-06-26T09:31:39.136Z,39.10
2019-06-26T09:34:07.464Z,38.50
2019-06-26T09:36:35.298Z,39.10
2019-06-26T09:39:03.242Z,39.30
2019-06-26T09:41:32.195Z,38.50
2019-06-26T09:44:00.390Z,39.40
2019-06-26T09:46:28.220Z,39.20
2019-06-26T09:48:56.282Z,39.20
2019-06-26T09:51:25.760Z,39.70
2019-06-26T09:53:54.236Z,39.90
2019-06-26T09:56:22.143Z,40.10
2019-06-26T09:58:50.191Z,40.40
2019-06-26T10:01:18.259Z,40.20
2019-06-26T10:03:45.390Z,39.40
2019-06-26T10:06:15.297Z,39.80
2019-06-26T10:08:43.305Z,39.30
2019-06-26T10:11:11.236Z,40.90
2019-06-26T10:13:37.937Z,40.90
2019-06-26T10:16:06.295Z,40.20
2019-06-26T10:18:33.083Z,39.80
2019-06-26T10:21:03.294Z,39.40
2019-06-26T10:23:32.249Z,40.30
2019-06-26T10:25:58.765Z,40.40
2019-06-26T10:28:27.243Z,39.90
2019-06-26T10:30:55.317Z,41.20
2019-06-26T10:33:21.849Z,40.80
2019-06-26T10:35:50.341Z,41.30
2019-06-26T10:38:17.203Z,41.60
2019-06-26T10:40:43.771Z,42.20
2019-06-26T10:43:10.652Z,42.30
2019-06-26T10:45:39.356Z,42.00
2019-06-26T10:48:08.337Z,41.70
2019-06-26T10:50:47.537Z,42.20
2019-06-26T10:53:07.234Z,43.00
2019-06-26T10:55:35.335Z,43.50
2019-06-26T10:58:02.013Z,43.80
2019-06-26T11:00:31.263Z,43.70
2019-06-26T11:02:57.940Z,41.90
2019-06-26T11:05:27.292Z,41.00
2019-06-26T11:07:55.163Z,42.40
2019-06-26T11:10:25.255Z,42.40
2019-06-26T11:12:52.277Z,42.40
2019-06-26T11:15:21.245Z,42.10
2019-06-26T11:17:47.933Z,43.20
2019-06-26T11:20:19.226Z,42.70
2019-06-26T11:22:47.286Z,41.80
2019-06-26T11:25:17.644Z,41.10
2019-06-26T11:27:46.305Z,42.10
2019-06-26T11:30:15.364Z,43.30
2019-06-26T11:32:44.239Z,42.90
2019-06-26T11:35:11.344Z,44.20
2019-06-26T11:37:39.283Z,44.50
2019-06-26T11:40:06.957Z,44.40
2019-06-26T11:42:35.343Z,44.10
2019-06-26T11:45:04.683Z,44.00
2019-06-26T11:47:33.298Z,44.00
2019-06-26T11:50:00.600Z,44.50
2019-06-26T11:52:30.403Z,43.30
2019-06-26T11:55:03.100Z,43.00
2019-06-26T11:57:29.250Z,41.20
2019-06-26T11:59:55.813Z,41.50
2019-06-26T12:02:22.407Z,42.10
2019-06-26T12:04:49.116Z,42.30
2019-06-26T12:07:17.252Z,41.40
2019-06-26T12:09:45.365Z,41.90
2019-06-26T12:12:13.316Z,42.00
2019-06-26T12:14:40.024Z,41.00
2019-06-26T12:17:08.335Z,41.40
2019-06-26T12:19:34.995Z,41.40
2019-06-26T12:22:03.379Z,41.40
2019-06-26T12:24:31.316Z,41.80
2019-06-26T12:27:01.323Z,42.10
2019-06-26T12:29:27.934Z,42.70
2019-06-26T12:31:56.379Z,43.50
2019-06-26T12:34:22.889Z,43.90
2019-06-26T12:36:51.258Z,43.50
2019-06-26T12:39:18.340Z,43.20
2019-06-26T12:41:46.299Z,43.50
2019-06-26T12:44:12.847Z,43.70
2019-06-26T12:46:42.451Z,43.50
2019-06-26T12:49:11.308Z,43.20
2019-06-26T12:51:39.536Z,43.40
2019-06-26T12:54:08.497Z,43.10
2019-06-26T12:56:35.386Z,43.30
2019-06-26T12:59:03.286Z,43.80
2019-06-26T13:01:30.019Z,44.70
2019-06-26T13:03:59.331Z,44.10
2019-06-26T13:06:26.940Z,43.80
2019-06-26T13:08:55.279Z,44.40
2019-06-26T13:11:23.363Z,44.80
2019-06-26T13:14:02.089Z,44.90
2019-06-26T13:16:20.308Z,45.20
2019-06-26T13:18:48.401Z,45.60
2019-06-26T13:21:15.333Z,45.20
2019-06-26T13:23:46.316Z,44.70
2019-06-26T13:26:14.358Z,44.40
2019-06-26T13:28:42.306Z,44.40
2019-06-26T13:31:10.364Z,43.20
2019-06-26T13:33:37.055Z,43.30
2019-06-26T13:36:05.359Z,42.80
2019-06-26T13:38:31.920Z,41.10
2019-06-26T13:41:00.298Z,41.50
2019-06-26T13:43:27.121Z,40.70
2019-06-26T13:45:58.611Z,42.10
2019-06-26T13:48:24.928Z,42.90
2019-06-26T13:51:08.177Z,43.80
2019-06-26T13:53:21.935Z,43.70
2019-06-26T13:55:52.412Z,44.10
2019-06-26T13:58:20.379Z,43.90
2019-06-26T14:00:46.949Z,42.80
2019-06-26T14:03:15.395Z,43.60
2019-06-26T14:05:42.193Z,43.10
2019-06-26T14:08:10.394Z,43.40
2019-06-26T14:10:37.011Z,43.60
2019-06-26T14:13:05.420Z,43.60
2019-06-26T14:15:31.972Z,43.30
2019-06-26T14:18:00.328Z,42.50
2019-06-26T14:20:27.104Z,41.90
2019-06-26T14:22:55.359Z,42.10
2019-06-26T14:25:22.081Z,41.50
2019-06-26T14:27:52.468Z,42.10
2019-06-26T14:30:19.601Z,42.90
2019-06-26T14:32:47.467Z,43.60
2019-06-26T14:35:14.496Z,43.80
2019-06-26T14:37:41.115Z,43.60
2019-06-26T14:40:08.345Z,43.00
2019-06-26T14:42:36.342Z,41.90
2019-06-26T14:45:06.330Z,42.10
2019-06-26T14:47:35.628Z,43.50
2019-06-26T14:50:04.719Z,42.90
2019-06-26T14:52:35.225Z,43.80
2019-06-26T14:55:03.890Z,43.60
2019-06-26T14:57:34.417Z,42.80
2019-06-26T15:00:04.313Z,42.60
2019-06-26T15:02:32.392Z,42.60
2019-06-26T15:05:00.434Z,42.10
2019-06-26T15:07:28.419Z,42.50
2019-06-26T15:09:56.327Z,41.80
2019-06-26T15:12:24.371Z,41.80
2019-06-26T15:14:50.913Z,42.20
2019-06-26T15:17:19.658Z,42.90
2019-06-26T15:19:47.456Z,42.50
2019-06-26T15:22:15.445Z,43.00
2019-06-26T15:24:43.436Z,42.20
2019-06-26T15:27:13.412Z,41.90
2019-06-26T15:29:40.004Z,41.70
2019-06-26T15:32:08.422Z,42.10
2019-06-26T15:34:34.999Z,42.20
2019-06-26T15:37:03.336Z,42.90
2019-06-26T15:39:29.952Z,42.90
2019-06-26T15:41:56.680Z,42.30
2019-06-26T15:44:23.331Z,42.20
2019-06-26T15:46:51.330Z,41.90
2019-06-26T15:49:17.896Z,42.30
2019-06-26T15:51:47.395Z,41.80
2019-06-26T15:54:13.963Z,42.50
2019-06-26T15:56:44.351Z,41.80
2019-06-26T15:59:11.044Z,41.50
2019-06-26T16:01:39.494Z,42.20
2019-06-26T16:04:08.460Z,42.40
2019-06-26T16:06:36.635Z,42.20
2019-06-26T16:09:06.436Z,41.80
2019-06-26T16:11:33.246Z,42.00
2019-06-26T16:14:01.462Z,41.30
2019-06-26T16:16:28.416Z,41.50
2019-06-26T16:18:58.447Z,41.80
2019-06-26T16:21:26.437Z,41.70
2019-06-26T16:23:53.146Z,41.20
2019-06-26T16:26:23.470Z,41.30
2019-06-26T16:28:50.007Z,41.40
2019-06-26T16:31:18.614Z,40.90
2019-06-26T16:33:46.445Z,40.80
2019-06-26T16:36:12.989Z,40.80
2019-06-26T16:38:41.418Z,41.10
2019-06-26T16:41:08.020Z,41.20
2019-06-26T16:43:36.474Z,41.30
2019-06-26T16:46:04.531Z,41.00
2019-06-26T16:48:31.669Z,41.40
2019-06-26T16:51:01.430Z,41.00
2019-06-26T16:53:28.095Z,40.50
2019-06-26T16:55:58.468Z,40.00
2019-06-26T16:58:25.028Z,39.60
2019-06-26T17:00:53.449Z,40.00
2019-06-26T17:03:20.026Z,39.70
2019-06-26T17:05:49.404Z,38.90
2019-06-26T17:08:17.507Z,38.40
2019-06-26T17:10:44.072Z,37.80
2019-06-26T17:13:14.454Z,37.30
2019-06-26T17:15:41.335Z,37.10
2019-06-26T17:18:09.484Z,36.90
2019-06-26T17:20:36.134Z,36.60
2019-06-26T17:23:06.618Z,36.40
2019-06-26T17:25:33.605Z,36.10
2019-06-26T17:28:01.687Z,35.90
2019-06-26T17:30:29.422Z,35.70
2019-06-26T17:32:55.994Z,35.70
2019-06-26T17:35:24.537Z,35.50
2019-06-26T17:37:52.482Z,35.50
2019-06-26T17:40:21.413Z,35.30
2019-06-26T17:42:48.277Z,35.20
2019-06-26T17:45:17.395Z,35.10
2019-06-26T17:47:44.086Z,35.10
2019-06-26T17:50:12.447Z,34.90
2019-06-26T17:52:41.544Z,34.80
2019-06-26T17:55:10.428Z,34.60
2019-06-26T17:57:39.412Z,34.50
2019-06-26T18:00:08.183Z,34.30
2019-06-26T18:02:37.042Z,34.10
2019-06-26T18:05:08.573Z,34.10
2019-06-26T18:07:35.325Z,34.10
2019-06-26T18:10:05.151Z,34.00
2019-06-26T18:12:33.490Z,34.00
2019-06-26T18:15:00.166Z,33.90
2019-06-26T18:17:28.635Z,33.90
2019-06-26T18:19:55.288Z,33.80
2019-06-26T18:22:22.011Z,33.70
2019-06-26T18:24:48.650Z,33.60
2019-06-26T18:27:16.508Z,33.60
2019-06-26T18:29:43.082Z,33.60
2019-06-26T18:32:11.518Z,33.50
2019-06-26T18:34:39.799Z,33.40
2019-06-26T18:37:07.588Z,33.20
2019-06-26T18:39:36.476Z,33.00
2019-06-26T18:42:03.097Z,32.90
2019-06-26T18:44:31.549Z,32.70
2019-06-26T18:46:59.507Z,32.50
2019-06-26T18:49:27.530Z,32.30
2019-06-26T18:51:56.214Z,32.00
2019-06-26T18:54:24.455Z,31.80
2019-06-26T18:56:52.505Z,31.80
2019-06-26T18:59:20.500Z,31.70
2019-06-26T19:01:47.075Z,31.60
2019-06-26T19:04:15.525Z,31.50
2019-06-26T19:06:43.725Z,31.40
2019-06-26T19:09:10.569Z,31.30
2019-06-26T19:11:38.607Z,31.10
2019-06-26T19:14:05.285Z,31.00
2019-06-26T19:16:36.253Z,30.90
2019-06-26T19:19:03.527Z,30.80
2019-06-26T19:21:30.217Z,30.70
2019-06-26T19:24:09.709Z,30.50
2019-06-26T19:26:26.069Z,30.40
2019-06-26T19:28:54.544Z,30.40
2019-06-26T19:31:22.462Z,30.30
2019-06-26T19:33:52.574Z,30.20
2019-06-26T19:36:19.248Z,30.10
2019-06-26T19:38:47.587Z,30.00
2019-06-26T19:41:14.173Z,30.00
2019-06-26T19:43:42.490Z,30.00
2019-06-26T19:46:09.167Z,30.00
2019-06-26T19:48:37.540Z,29.90
2019-06-26T19:51:05.202Z,29.70
2019-06-26T19:53:33.528Z,29.70
2019-06-26T19:56:00.254Z,29.60
2019-06-26T19:58:28.580Z,29.60
2019-06-26T20:00:56.651Z,29.60
2019-06-26T20:03:23.342Z,29.50
2019-06-26T20:05:53.613Z,29.60
2019-06-26T20:08:20.373Z,29.60
2019-06-26T20:10:48.528Z,29.70
2019-06-26T20:13:15.163Z,29.70
2019-06-26T20:15:41.950Z,29.80
2019-06-26T20:18:08.561Z,29.80
2019-06-26T20:20:36.581Z,29.80
2019-06-26T20:23:04.571Z,29.70
2019-06-26T20:25:31.155Z,29.70
2019-06-26T20:27:59.649Z,29.70
2019-06-26T20:30:31.539Z,29.70
2019-06-26T20:32:59.546Z,29.70
2019-06-26T20:35:27.746Z,29.60
2019-06-26T20:37:56.613Z,29.60
2019-06-26T20:40:23.330Z,29.60
2019-06-26T20:42:53.575Z,29.40
2019-06-26T20:45:21.615Z,29.50
2019-06-26T20:47:49.568Z,29.50
2019-06-26T20:50:17.043Z,29.40
2019-06-26T20:52:45.633Z,29.40
2019-06-26T20:55:12.541Z,29.40
2019-06-26T20:57:40.553Z,29.40
2019-06-26T21:00:08.738Z,29.40
2019-06-26T21:02:37.571Z,29.30
2019-06-26T21:05:05.500Z,29.30
2019-06-26T21:07:32.338Z,29.20
2019-06-26T21:10:00.580Z,29.10
2019-06-26T21:12:28.591Z,29.00
2019-06-26T21:14:56.517Z,29.00
2019-06-26T21:17:26.552Z,28.90
2019-06-26T21:19:53.208Z,28.90
2019-06-26T21:22:21.677Z,28.80
2019-06-26T21:24:48.233Z,28.80
2019-06-26T21:27:17.632Z,28.80
2019-06-26T21:29:44.288Z,28.80
2019-06-26T21:32:12.581Z,28.70
2019-06-26T21:34:39.386Z,28.60
2019-06-26T21:37:07.776Z,28.60
2019-06-26T21:39:34.293Z,28.50
2019-06-26T21:42:02.670Z,28.40
2019-06-26T21:44:30.649Z,28.30
2019-06-26T21:46:57.221Z,28.20
2019-06-26T21:49:25.561Z,28.10
2019-06-26T21:51:54.240Z,28.00
2019-06-26T21:54:22.589Z,28.00
2019-06-26T21:57:09.715Z,27.90
2019-06-26T21:59:56.535Z,27.80
2019-06-26T22:02:41.859Z,27.70
2019-06-26T22:05:14.516Z,27.70
2019-06-26T22:07:45.524Z,27.60
2019-06-26T22:10:17.579Z,27.50
2019-06-26T22:12:44.454Z,27.40
2019-06-26T22:15:14.497Z,27.30
2019-06-26T22:17:44.532Z,27.20
2019-06-26T22:20:14.750Z,27.20
2019-06-26T22:22:43.586Z,27.20
2019-06-26T22:25:11.189Z,27.20
2019-06-26T22:27:39.730Z,27.20
2019-06-26T22:30:09.635Z,27.30
2019-06-26T22:32:38.587Z,27.30
2019-06-26T22:35:06.645Z,27.30
2019-06-26T22:37:34.636Z,27.30
2019-06-26T22:40:03.850Z,27.20
2019-06-26T22:42:32.622Z,27.00
2019-06-26T22:44:59.334Z,27.00
2019-06-26T22:47:29.702Z,26.90
2019-06-26T22:49:56.349Z,26.80
2019-06-26T22:52:25.535Z,26.80
2019-06-26T22:54:53.723Z,26.80
2019-06-26T22:57:20.318Z,26.80
2019-06-26T22:59:48.584Z,26.80
2019-06-26T23:02:16.750Z,26.70
2019-06-26T23:04:44.576Z,26.70
2019-06-26T23:07:12.568Z,26.60
2019-06-26T23:09:40.565Z,26.50
2019-06-26T23:12:07.215Z,26.40
2019-06-26T23:14:35.775Z,26.30
2019-06-26T23:17:03.579Z,26.30
2019-06-26T23:19:30.135Z,26.40
2019-06-26T23:21:58.580Z,26.50
2019-06-26T23:24:25.340Z,26.50
2019-06-26T23:26:53.593Z,26.40
2019-06-26T23:29:20.059Z,26.40
2019-06-26T23:31:48.710Z,26.30
2019-06-26T23:34:16.593Z,26.20
2019-06-26T23:36:43.009Z,26.10
2019-06-26T23:39:12.601Z,26.00
2019-06-26T23:41:39.368Z,25.90
2019-06-26T23:44:07.633Z,25.90
2019-06-26T23:46:34.080Z,26.00
2019-06-26T23:49:03.644Z,26.30
2019-06-26T23:51:31.080Z,26.30
2019-06-26T23:54:00.620Z,26.30
2019-06-26T23:56:39.910Z,26.30
2019-06-26T23:58:57.550Z,26.20
